sensor_id;sensor_type;location;lat;lon;timestamp;P1;durP1;ratioP1;P2;durP2;ratioP2
32639;SDS011;19049;52.524;11.468;2022-11-11T00:00:23;2.87;;;1.10;;
32639;SDS011;19049;52.524;11.468;2022-11-11T00:02:48;3.50;;;1.17;;
32639;SDS011;19049;52.524;11.468;2022-11-11T00:05:15;1.47;;;0.80;;
32639;SDS011;19049;52.524;11.468;2022-11-11T00:07:41;2.67;;;0.97;;
32639;SDS011;19049;52.524;11.468;2022-11-11T00:10:07;1.77;;;0.90;;
32639;SDS011;19049;52.524;11.468;2022-11-11T00:12:34;1.17;;;0.77;;
32639;SDS011;19049;52.524;11.468;2022-11-11T00:14:59;2.37;;;1.07;;
32639;SDS011;19049;52.524;11.468;2022-11-11T00:17:25;3.63;;;1.13;;
32639;SDS011;19049;52.524;11.468;2022-11-11T00:20:10;2.33;;;0.90;;
32639;SDS011;19049;52.524;11.468;2022-11-11T00:22:54;3.53;;;1.10;;
32639;SDS011;19049;52.524;11.468;2022-11-11T00:25:39;2.63;;;1.00;;
32639;SDS011;19049;52.524;11.468;2022-11-11T00:28:05;1.73;;;0.87;;
32639;SDS011;19049;52.524;11.468;2022-11-11T00:30:31;2.27;;;0.90;;
32639;SDS011;19049;52.524;11.468;2022-11-11T00:32:56;2.17;;;0.80;;
32639;SDS011;19049;52.524;11.468;2022-11-11T00:35:22;2.67;;;0.90;;
32639;SDS011;19049;52.524;11.468;2022-11-11T00:38:07;3.30;;;1.00;;
32639;SDS011;19049;52.524;11.468;2022-11-11T00:40:35;2.27;;;1.13;;
32639;SDS011;19049;52.524;11.468;2022-11-11T00:43:01;1.40;;;0.97;;
32639;SDS011;19049;52.524;11.468;2022-11-11T00:45:27;4.37;;;1.00;;
32639;SDS011;19049;52.524;11.468;2022-11-11T00:47:52;2.20;;;0.90;;
32639;SDS011;19049;52.524;11.468;2022-11-11T00:50:36;1.27;;;0.90;;
32639;SDS011;19049;52.524;11.468;2022-11-11T00:53:22;3.00;;;1.00;;
32639;SDS011;19049;52.524;11.468;2022-11-11T00:55:49;2.47;;;1.00;;
32639;SDS011;19049;52.524;11.468;2022-11-11T00:58:15;2.43;;;0.90;;
32639;SDS011;19049;52.524;11.468;2022-11-11T01:00:43;2.37;;;0.97;;
32639;SDS011;19049;52.524;11.468;2022-11-11T01:03:09;2.73;;;0.93;;
32639;SDS011;19049;52.524;11.468;2022-11-11T01:05:38;4.73;;;1.40;;
32639;SDS011;19049;52.524;11.468;2022-11-11T01:08:04;2.60;;;0.90;;
32639;SDS011;19049;52.524;11.468;2022-11-11T01:10:30;2.83;;;1.00;;
32639;SDS011;19049;52.524;11.468;2022-11-11T01:15:44;2.93;;;1.13;;
32639;SDS011;19049;52.524;11.468;2022-11-11T01:18:13;3.20;;;1.00;;
32639;SDS011;19049;52.524;11.468;2022-11-11T01:20:40;1.47;;;0.90;;
32639;SDS011;19049;52.524;11.468;2022-11-11T01:23:06;1.27;;;0.87;;
32639;SDS011;19049;52.524;11.468;2022-11-11T01:25:33;2.30;;;1.00;;
32639;SDS011;19049;52.524;11.468;2022-11-11T01:28:00;1.10;;;0.90;;
32639;SDS011;19049;52.524;11.468;2022-11-11T01:30:26;1.67;;;0.93;;
32639;SDS011;19049;52.524;11.468;2022-11-11T01:32:52;1.80;;;0.90;;
32639;SDS011;19049;52.524;11.468;2022-11-11T01:35:18;4.17;;;1.10;;
32639;SDS011;19049;52.524;11.468;2022-11-11T01:37:44;2.20;;;1.30;;
32639;SDS011;19049;52.524;11.468;2022-11-11T01:40:09;2.17;;;0.90;;
32639;SDS011;19049;52.524;11.468;2022-11-11T01:43:36;3.33;;;1.37;;
32639;SDS011;19049;52.524;11.468;2022-11-11T01:45:47;0.97;;;0.77;;
32639;SDS011;19049;52.524;11.468;2022-11-11T01:48:28;1.43;;;0.83;;
32639;SDS011;19049;52.524;11.468;2022-11-11T01:51:22;3.00;;;0.90;;
32639;SDS011;19049;52.524;11.468;2022-11-11T01:53:56;2.90;;;0.93;;
32639;SDS011;19049;52.524;11.468;2022-11-11T01:56:25;2.03;;;0.83;;
32639;SDS011;19049;52.524;11.468;2022-11-11T01:58:51;1.73;;;0.80;;
32639;SDS011;19049;52.524;11.468;2022-11-11T02:01:20;2.90;;;1.00;;
32639;SDS011;19049;52.524;11.468;2022-11-11T02:03:46;1.00;;;0.80;;
32639;SDS011;19049;52.524;11.468;2022-11-11T02:06:38;1.47;;;0.70;;
32639;SDS011;19049;52.524;11.468;2022-11-11T02:09:04;2.53;;;0.77;;
32639;SDS011;19049;52.524;11.468;2022-11-11T02:11:32;2.63;;;0.93;;
32639;SDS011;19049;52.524;11.468;2022-11-11T02:14:18;2.03;;;0.70;;
32639;SDS011;19049;52.524;11.468;2022-11-11T02:17:00;1.97;;;1.07;;
32639;SDS011;19049;52.524;11.468;2022-11-11T02:19:50;1.73;;;0.70;;
32639;SDS011;19049;52.524;11.468;2022-11-11T02:25:25;3.13;;;0.80;;
32639;SDS011;19049;52.524;11.468;2022-11-11T02:27:56;2.10;;;0.80;;
32639;SDS011;19049;52.524;11.468;2022-11-11T02:30:25;3.70;;;1.20;;
32639;SDS011;19049;52.524;11.468;2022-11-11T02:32:53;2.23;;;1.00;;
32639;SDS011;19049;52.524;11.468;2022-11-11T02:37:48;2.87;;;1.27;;
32639;SDS011;19049;52.524;11.468;2022-11-11T02:40:17;0.83;;;0.70;;
32639;SDS011;19049;52.524;11.468;2022-11-11T02:42:46;2.13;;;0.97;;
32639;SDS011;19049;52.524;11.468;2022-11-11T02:45:11;2.63;;;0.90;;
32639;SDS011;19049;52.524;11.468;2022-11-11T02:47:37;1.40;;;0.80;;
32639;SDS011;19049;52.524;11.468;2022-11-11T02:50:03;1.20;;;0.80;;
32639;SDS011;19049;52.524;11.468;2022-11-11T02:52:29;2.20;;;0.90;;
32639;SDS011;19049;52.524;11.468;2022-11-11T02:54:55;2.73;;;0.90;;
32639;SDS011;19049;52.524;11.468;2022-11-11T02:57:21;1.63;;;0.77;;
32639;SDS011;19049;52.524;11.468;2022-11-11T02:59:47;1.83;;;0.90;;
32639;SDS011;19049;52.524;11.468;2022-11-11T03:02:12;2.80;;;0.80;;
32639;SDS011;19049;52.524;11.468;2022-11-11T03:04:38;1.93;;;0.80;;
32639;SDS011;19049;52.524;11.468;2022-11-11T03:07:04;2.10;;;0.90;;
32639;SDS011;19049;52.524;11.468;2022-11-11T03:09:30;2.60;;;0.77;;
32639;SDS011;19049;52.524;11.468;2022-11-11T03:11:56;0.87;;;0.50;;
32639;SDS011;19049;52.524;11.468;2022-11-11T03:14:21;0.97;;;0.77;;
32639;SDS011;19049;52.524;11.468;2022-11-11T03:16:52;1.73;;;0.70;;
32639;SDS011;19049;52.524;11.468;2022-11-11T03:19:36;1.47;;;1.07;;
32639;SDS011;19049;52.524;11.468;2022-11-11T03:22:02;1.47;;;0.87;;
32639;SDS011;19049;52.524;11.468;2022-11-11T03:24:29;2.47;;;0.83;;
32639;SDS011;19049;52.524;11.468;2022-11-11T03:27:24;1.73;;;0.80;;
32639;SDS011;19049;52.524;11.468;2022-11-11T03:29:49;2.07;;;1.17;;
32639;SDS011;19049;52.524;11.468;2022-11-11T03:32:17;3.27;;;1.03;;
32639;SDS011;19049;52.524;11.468;2022-11-11T03:34:43;3.60;;;1.20;;
32639;SDS011;19049;52.524;11.468;2022-11-11T03:37:09;2.33;;;0.90;;
32639;SDS011;19049;52.524;11.468;2022-11-11T03:39:54;2.27;;;0.80;;
32639;SDS011;19049;52.524;11.468;2022-11-11T03:42:20;1.97;;;0.83;;
32639;SDS011;19049;52.524;11.468;2022-11-11T03:44:48;0.97;;;0.80;;
32639;SDS011;19049;52.524;11.468;2022-11-11T03:47:14;1.53;;;1.00;;
32639;SDS011;19049;52.524;11.468;2022-11-11T03:49:40;2.13;;;1.10;;
32639;SDS011;19049;52.524;11.468;2022-11-11T03:52:07;2.00;;;1.10;;
32639;SDS011;19049;52.524;11.468;2022-11-11T03:54:33;1.47;;;1.00;;
32639;SDS011;19049;52.524;11.468;2022-11-11T03:56:58;1.97;;;0.90;;
32639;SDS011;19049;52.524;11.468;2022-11-11T03:59:43;2.13;;;1.00;;
32639;SDS011;19049;52.524;11.468;2022-11-11T04:02:11;2.27;;;1.23;;
32639;SDS011;19049;52.524;11.468;2022-11-11T04:05:16;1.80;;;0.90;;
32639;SDS011;19049;52.524;11.468;2022-11-11T04:08:01;3.20;;;1.07;;
32639;SDS011;19049;52.524;11.468;2022-11-11T04:10:45;1.87;;;0.90;;
32639;SDS011;19049;52.524;11.468;2022-11-11T04:13:10;1.50;;;0.90;;
32639;SDS011;19049;52.524;11.468;2022-11-11T04:15:55;4.57;;;2.20;;
32639;SDS011;19049;52.524;11.468;2022-11-11T04:18:30;1.73;;;1.20;;
32639;SDS011;19049;52.524;11.468;2022-11-11T04:21:14;3.20;;;0.90;;
32639;SDS011;19049;52.524;11.468;2022-11-11T04:23:59;6.00;;;1.17;;
32639;SDS011;19049;52.524;11.468;2022-11-11T04:26:24;2.40;;;0.90;;
32639;SDS011;19049;52.524;11.468;2022-11-11T04:28:50;4.97;;;1.00;;
32639;SDS011;19049;52.524;11.468;2022-11-11T04:31:35;2.57;;;1.20;;
32639;SDS011;19049;52.524;11.468;2022-11-11T04:34:00;2.67;;;1.20;;
32639;SDS011;19049;52.524;11.468;2022-11-11T04:36:26;3.00;;;1.03;;
32639;SDS011;19049;52.524;11.468;2022-11-11T04:38:52;1.10;;;0.80;;
32639;SDS011;19049;52.524;11.468;2022-11-11T04:41:36;3.87;;;1.00;;
32639;SDS011;19049;52.524;11.468;2022-11-11T04:44:02;2.90;;;1.10;;
32639;SDS011;19049;52.524;11.468;2022-11-11T04:46:46;2.43;;;0.90;;
32639;SDS011;19049;52.524;11.468;2022-11-11T04:49:12;1.63;;;0.77;;
32639;SDS011;19049;52.524;11.468;2022-11-11T04:51:37;1.87;;;1.10;;
32639;SDS011;19049;52.524;11.468;2022-11-11T04:54:22;1.40;;;0.87;;
32639;SDS011;19049;52.524;11.468;2022-11-11T04:56:47;1.40;;;0.83;;
32639;SDS011;19049;52.524;11.468;2022-11-11T04:59:15;1.63;;;0.93;;
32639;SDS011;19049;52.524;11.468;2022-11-11T05:01:41;3.27;;;1.00;;
32639;SDS011;19049;52.524;11.468;2022-11-11T05:04:25;2.20;;;0.83;;
32639;SDS011;19049;52.524;11.468;2022-11-11T05:06:51;2.33;;;1.00;;
32639;SDS011;19049;52.524;11.468;2022-11-11T05:09:35;0.83;;;0.73;;
32639;SDS011;19049;52.524;11.468;2022-11-11T05:12:04;1.47;;;0.80;;
32639;SDS011;19049;52.524;11.468;2022-11-11T05:14:30;1.50;;;0.90;;
32639;SDS011;19049;52.524;11.468;2022-11-11T05:17:14;2.33;;;0.90;;
32639;SDS011;19049;52.524;11.468;2022-11-11T05:19:58;2.30;;;0.80;;
32639;SDS011;19049;52.524;11.468;2022-11-11T05:22:42;2.63;;;0.93;;
32639;SDS011;19049;52.524;11.468;2022-11-11T05:25:09;1.27;;;0.90;;
32639;SDS011;19049;52.524;11.468;2022-11-11T05:27:53;1.23;;;0.80;;
32639;SDS011;19049;52.524;11.468;2022-11-11T05:30:23;1.27;;;0.83;;
32639;SDS011;19049;52.524;11.468;2022-11-11T05:32:49;1.90;;;1.03;;
32639;SDS011;19049;52.524;11.468;2022-11-11T05:35:15;3.87;;;1.20;;
32639;SDS011;19049;52.524;11.468;2022-11-11T05:37:42;1.23;;;0.93;;
32639;SDS011;19049;52.524;11.468;2022-11-11T05:40:08;2.23;;;1.13;;
32639;SDS011;19049;52.524;11.468;2022-11-11T05:42:35;1.20;;;0.70;;
32639;SDS011;19049;52.524;11.468;2022-11-11T05:45:06;1.10;;;0.60;;
32639;SDS011;19049;52.524;11.468;2022-11-11T05:47:36;2.00;;;0.97;;
32639;SDS011;19049;52.524;11.468;2022-11-11T05:50:02;0.80;;;0.80;;
32639;SDS011;19049;52.524;11.468;2022-11-11T05:52:27;1.30;;;0.90;;
32639;SDS011;19049;52.524;11.468;2022-11-11T05:54:53;2.03;;;1.00;;
32639;SDS011;19049;52.524;11.468;2022-11-11T05:57:19;0.97;;;0.90;;
32639;SDS011;19049;52.524;11.468;2022-11-11T05:59:44;2.60;;;0.90;;
32639;SDS011;19049;52.524;11.468;2022-11-11T06:02:12;1.20;;;0.90;;
32639;SDS011;19049;52.524;11.468;2022-11-11T06:04:37;1.60;;;0.80;;
32639;SDS011;19049;52.524;11.468;2022-11-11T06:07:03;1.10;;;0.90;;
32639;SDS011;19049;52.524;11.468;2022-11-11T06:09:29;3.57;;;0.67;;
32639;SDS011;19049;52.524;11.468;2022-11-11T06:11:54;1.43;;;0.73;;
32639;SDS011;19049;52.524;11.468;2022-11-11T06:14:20;2.07;;;1.00;;
32639;SDS011;19049;52.524;11.468;2022-11-11T06:16:46;2.17;;;0.90;;
32639;SDS011;19049;52.524;11.468;2022-11-11T06:19:12;1.90;;;0.83;;
32639;SDS011;19049;52.524;11.468;2022-11-11T06:21:37;1.87;;;0.70;;
32639;SDS011;19049;52.524;11.468;2022-11-11T06:24:32;0.93;;;0.70;;
32639;SDS011;19049;52.524;11.468;2022-11-11T06:26:58;0.83;;;0.73;;
32639;SDS011;19049;52.524;11.468;2022-11-11T06:29:23;2.40;;;0.87;;
32639;SDS011;19049;52.524;11.468;2022-11-11T06:31:49;1.33;;;0.87;;
32639;SDS011;19049;52.524;11.468;2022-11-11T06:34:15;0.90;;;0.70;;
32639;SDS011;19049;52.524;11.468;2022-11-11T06:36:41;1.63;;;0.90;;
32639;SDS011;19049;52.524;11.468;2022-11-11T06:39:06;0.80;;;0.67;;
32639;SDS011;19049;52.524;11.468;2022-11-11T06:41:32;2.10;;;0.70;;
32639;SDS011;19049;52.524;11.468;2022-11-11T06:43:57;1.43;;;0.63;;
32639;SDS011;19049;52.524;11.468;2022-11-11T06:46:24;2.00;;;0.83;;
32639;SDS011;19049;52.524;11.468;2022-11-11T06:48:50;1.23;;;0.87;;
32639;SDS011;19049;52.524;11.468;2022-11-11T06:51:16;1.83;;;0.87;;
32639;SDS011;19049;52.524;11.468;2022-11-11T06:53:42;2.50;;;1.00;;
32639;SDS011;19049;52.524;11.468;2022-11-11T06:56:08;1.77;;;1.00;;
32639;SDS011;19049;52.524;11.468;2022-11-11T06:58:36;2.30;;;0.90;;
32639;SDS011;19049;52.524;11.468;2022-11-11T07:01:06;3.20;;;1.17;;
32639;SDS011;19049;52.524;11.468;2022-11-11T07:03:32;1.47;;;0.83;;
32639;SDS011;19049;52.524;11.468;2022-11-11T07:06:04;2.37;;;0.97;;
32639;SDS011;19049;52.524;11.468;2022-11-11T07:08:30;1.60;;;0.90;;
32639;SDS011;19049;52.524;11.468;2022-11-11T07:10:57;1.60;;;1.10;;
32639;SDS011;19049;52.524;11.468;2022-11-11T07:13:22;4.87;;;1.53;;
32639;SDS011;19049;52.524;11.468;2022-11-11T07:15:48;1.37;;;1.10;;
32639;SDS011;19049;52.524;11.468;2022-11-11T07:18:14;1.87;;;1.07;;
32639;SDS011;19049;52.524;11.468;2022-11-11T07:20:40;2.27;;;1.00;;
32639;SDS011;19049;52.524;11.468;2022-11-11T07:23:06;2.27;;;0.97;;
32639;SDS011;19049;52.524;11.468;2022-11-11T07:25:32;1.63;;;1.00;;
32639;SDS011;19049;52.524;11.468;2022-11-11T07:27:57;1.33;;;0.77;;
32639;SDS011;19049;52.524;11.468;2022-11-11T07:30:25;2.70;;;1.47;;
32639;SDS011;19049;52.524;11.468;2022-11-11T07:32:51;1.83;;;0.90;;
32639;SDS011;19049;52.524;11.468;2022-11-11T07:35:18;1.97;;;0.80;;
32639;SDS011;19049;52.524;11.468;2022-11-11T07:37:46;2.13;;;1.20;;
32639;SDS011;19049;52.524;11.468;2022-11-11T07:40:13;0.93;;;0.83;;
32639;SDS011;19049;52.524;11.468;2022-11-11T07:42:41;2.43;;;0.87;;
32639;SDS011;19049;52.524;11.468;2022-11-11T07:45:07;2.33;;;1.10;;
32639;SDS011;19049;52.524;11.468;2022-11-11T07:47:34;2.60;;;1.03;;
32639;SDS011;19049;52.524;11.468;2022-11-11T07:50:00;1.40;;;1.07;;
32639;SDS011;19049;52.524;11.468;2022-11-11T07:52:29;1.50;;;1.10;;
32639;SDS011;19049;52.524;11.468;2022-11-11T07:54:55;3.20;;;1.43;;
32639;SDS011;19049;52.524;11.468;2022-11-11T07:57:21;1.70;;;1.23;;
32639;SDS011;19049;52.524;11.468;2022-11-11T07:59:47;1.30;;;1.20;;
32639;SDS011;19049;52.524;11.468;2022-11-11T08:02:13;1.83;;;1.20;;
32639;SDS011;19049;52.524;11.468;2022-11-11T08:04:39;1.43;;;0.90;;
32639;SDS011;19049;52.524;11.468;2022-11-11T08:07:07;1.80;;;1.10;;
32639;SDS011;19049;52.524;11.468;2022-11-11T08:09:35;3.93;;;1.07;;
32639;SDS011;19049;52.524;11.468;2022-11-11T08:12:01;1.43;;;0.97;;
32639;SDS011;19049;52.524;11.468;2022-11-11T08:14:44;2.40;;;1.40;;
32639;SDS011;19049;52.524;11.468;2022-11-11T08:17:13;1.77;;;1.00;;
32639;SDS011;19049;52.524;11.468;2022-11-11T08:19:38;2.33;;;1.00;;
32639;SDS011;19049;52.524;11.468;2022-11-11T08:22:04;2.67;;;0.80;;
32639;SDS011;19049;52.524;11.468;2022-11-11T08:24:30;1.80;;;1.00;;
32639;SDS011;19049;52.524;11.468;2022-11-11T08:26:55;1.80;;;1.00;;
32639;SDS011;19049;52.524;11.468;2022-11-11T08:29:24;2.87;;;1.00;;
32639;SDS011;19049;52.524;11.468;2022-11-11T08:31:50;1.73;;;1.10;;
32639;SDS011;19049;52.524;11.468;2022-11-11T08:34:17;2.03;;;1.20;;
32639;SDS011;19049;52.524;11.468;2022-11-11T08:36:43;1.87;;;1.10;;
32639;SDS011;19049;52.524;11.468;2022-11-11T08:39:08;3.40;;;1.37;;
32639;SDS011;19049;52.524;11.468;2022-11-11T08:41:35;2.13;;;1.30;;
32639;SDS011;19049;52.524;11.468;2022-11-11T08:44:03;1.60;;;1.10;;
32639;SDS011;19049;52.524;11.468;2022-11-11T08:46:29;1.83;;;0.80;;
32639;SDS011;19049;52.524;11.468;2022-11-11T08:48:55;1.77;;;1.03;;
32639;SDS011;19049;52.524;11.468;2022-11-11T08:51:28;3.63;;;1.23;;
32639;SDS011;19049;52.524;11.468;2022-11-11T08:53:53;3.03;;;1.10;;
32639;SDS011;19049;52.524;11.468;2022-11-11T08:56:19;2.53;;;1.10;;
32639;SDS011;19049;52.524;11.468;2022-11-11T08:58:45;4.13;;;1.10;;
32639;SDS011;19049;52.524;11.468;2022-11-11T09:01:11;3.23;;;1.40;;
32639;SDS011;19049;52.524;11.468;2022-11-11T09:03:38;3.23;;;1.40;;
32639;SDS011;19049;52.524;11.468;2022-11-11T09:06:08;3.77;;;1.30;;
32639;SDS011;19049;52.524;11.468;2022-11-11T09:08:35;3.60;;;1.37;;
32639;SDS011;19049;52.524;11.468;2022-11-11T09:11:03;2.77;;;1.50;;
32639;SDS011;19049;52.524;11.468;2022-11-11T09:13:29;3.50;;;1.70;;
32639;SDS011;19049;52.524;11.468;2022-11-11T09:15:55;2.93;;;1.47;;
32639;SDS011;19049;52.524;11.468;2022-11-11T09:18:23;3.73;;;1.73;;
32639;SDS011;19049;52.524;11.468;2022-11-11T09:21:02;3.63;;;1.40;;
32639;SDS011;19049;52.524;11.468;2022-11-11T09:23:39;2.43;;;1.43;;
32639;SDS011;19049;52.524;11.468;2022-11-11T09:26:05;2.43;;;1.50;;
32639;SDS011;19049;52.524;11.468;2022-11-11T09:28:33;2.80;;;1.40;;
32639;SDS011;19049;52.524;11.468;2022-11-11T09:31:02;3.87;;;1.63;;
32639;SDS011;19049;52.524;11.468;2022-11-11T09:33:31;1.93;;;1.30;;
32639;SDS011;19049;52.524;11.468;2022-11-11T09:36:06;1.83;;;1.50;;
32639;SDS011;19049;52.524;11.468;2022-11-11T09:38:35;2.27;;;1.50;;
32639;SDS011;19049;52.524;11.468;2022-11-11T09:46:51;2.23;;;1.20;;
32639;SDS011;19049;52.524;11.468;2022-11-11T09:49:38;2.97;;;1.07;;
32639;SDS011;19049;52.524;11.468;2022-11-11T09:52:20;1.47;;;1.20;;
32639;SDS011;19049;52.524;11.468;2022-11-11T09:54:56;2.03;;;1.13;;
32639;SDS011;19049;52.524;11.468;2022-11-11T09:57:38;1.73;;;1.33;;
32639;SDS011;19049;52.524;11.468;2022-11-11T10:00:21;2.40;;;1.30;;
32639;SDS011;19049;52.524;11.468;2022-11-11T10:02:56;2.60;;;1.33;;
32639;SDS011;19049;52.524;11.468;2022-11-11T10:05:31;2.87;;;1.20;;
32639;SDS011;19049;52.524;11.468;2022-11-11T10:08:17;2.30;;;1.47;;
32639;SDS011;19049;52.524;11.468;2022-11-11T10:10:49;3.10;;;1.10;;
32639;SDS011;19049;52.524;11.468;2022-11-11T10:13:34;3.13;;;1.43;;
32639;SDS011;19049;52.524;11.468;2022-11-11T10:21:37;3.17;;;1.30;;
32639;SDS011;19049;52.524;11.468;2022-11-11T10:24:12;1.83;;;1.40;;
32639;SDS011;19049;52.524;11.468;2022-11-11T10:26:42;2.53;;;1.30;;
32639;SDS011;19049;52.524;11.468;2022-11-11T10:29:12;2.27;;;1.10;;
32639;SDS011;19049;52.524;11.468;2022-11-11T10:31:44;4.10;;;1.50;;
32639;SDS011;19049;52.524;11.468;2022-11-11T10:34:17;3.03;;;1.30;;
32639;SDS011;19049;52.524;11.468;2022-11-11T10:36:49;2.33;;;1.37;;
32639;SDS011;19049;52.524;11.468;2022-11-11T10:39:43;1.87;;;1.00;;
32639;SDS011;19049;52.524;11.468;2022-11-11T10:42:15;4.00;;;1.20;;
32639;SDS011;19049;52.524;11.468;2022-11-11T10:44:42;3.50;;;1.20;;
32639;SDS011;19049;52.524;11.468;2022-11-11T10:47:14;2.80;;;1.10;;
32639;SDS011;19049;52.524;11.468;2022-11-11T10:50:17;1.30;;;1.00;;
32639;SDS011;19049;52.524;11.468;2022-11-11T10:52:59;1.10;;;0.90;;
32639;SDS011;19049;52.524;11.468;2022-11-11T10:55:55;1.80;;;1.10;;
32639;SDS011;19049;52.524;11.468;2022-11-11T10:58:38;1.80;;;1.10;;
32639;SDS011;19049;52.524;11.468;2022-11-11T11:01:11;1.80;;;1.10;;
32639;SDS011;19049;52.524;11.468;2022-11-11T11:03:42;2.20;;;1.40;;
32639;SDS011;19049;52.524;11.468;2022-11-11T11:06:15;2.10;;;1.50;;
32639;SDS011;19049;52.524;11.468;2022-11-11T11:08:47;2.43;;;1.20;;
32639;SDS011;19049;52.524;11.468;2022-11-11T11:11:35;3.37;;;1.37;;
32639;SDS011;19049;52.524;11.468;2022-11-11T11:14:14;2.33;;;1.27;;
32639;SDS011;19049;52.524;11.468;2022-11-11T11:16:51;3.23;;;1.40;;
32639;SDS011;19049;52.524;11.468;2022-11-11T11:19:21;2.17;;;1.20;;
32639;SDS011;19049;52.524;11.468;2022-11-11T11:21:49;3.13;;;1.30;;
32639;SDS011;19049;52.524;11.468;2022-11-11T11:24:26;2.70;;;1.40;;
32639;SDS011;19049;52.524;11.468;2022-11-11T11:26:54;1.97;;;1.20;;
32639;SDS011;19049;52.524;11.468;2022-11-11T11:31:53;1.63;;;1.17;;
32639;SDS011;19049;52.524;11.468;2022-11-11T11:34:46;3.17;;;1.43;;
32639;SDS011;19049;52.524;11.468;2022-11-11T11:37:30;1.80;;;1.20;;
32639;SDS011;19049;52.524;11.468;2022-11-11T11:40:03;1.67;;;1.10;;
32639;SDS011;19049;52.524;11.468;2022-11-11T11:42:32;3.53;;;1.47;;
32639;SDS011;19049;52.524;11.468;2022-11-11T11:45:18;1.87;;;1.17;;
32639;SDS011;19049;52.524;11.468;2022-11-11T11:55:47;11.23;;;6.77;;
32639;SDS011;19049;52.524;11.468;2022-11-11T12:12:58;5.93;;;3.20;;
32639;SDS011;19049;52.524;11.468;2022-11-11T12:20:56;2.97;;;1.50;;
32639;SDS011;19049;52.524;11.468;2022-11-11T12:23:41;3.90;;;1.73;;
32639;SDS011;19049;52.524;11.468;2022-11-11T12:32:03;1.90;;;0.93;;
32639;SDS011;19049;52.524;11.468;2022-11-11T12:40:53;1.70;;;0.90;;
32639;SDS011;19049;52.524;11.468;2022-11-11T12:58:24;1.43;;;0.70;;
32639;SDS011;19049;52.524;11.468;2022-11-11T13:12:17;1.43;;;0.90;;
32639;SDS011;19049;52.524;11.468;2022-11-11T13:15:01;2.13;;;0.83;;
32639;SDS011;19049;52.524;11.468;2022-11-11T13:17:28;1.53;;;0.90;;
32639;SDS011;19049;52.524;11.468;2022-11-11T13:19:57;1.13;;;0.80;;
32639;SDS011;19049;52.524;11.468;2022-11-11T13:22:29;1.20;;;0.80;;
32639;SDS011;19049;52.524;11.468;2022-11-11T13:24:56;1.90;;;0.80;;
32639;SDS011;19049;52.524;11.468;2022-11-11T13:33:10;1.87;;;0.80;;
32639;SDS011;19049;52.524;11.468;2022-11-11T13:41:27;1.00;;;0.60;;
32639;SDS011;19049;52.524;11.468;2022-11-11T13:43:58;1.80;;;0.80;;
32639;SDS011;19049;52.524;11.468;2022-11-11T13:49:03;1.17;;;0.80;;
32639;SDS011;19049;52.524;11.468;2022-11-11T13:51:36;1.00;;;0.70;;
32639;SDS011;19049;52.524;11.468;2022-11-11T13:56:58;1.17;;;0.70;;
32639;SDS011;19049;52.524;11.468;2022-11-11T14:05:44;3.10;;;0.87;;
32639;SDS011;19049;52.524;11.468;2022-11-11T14:13:49;1.47;;;0.90;;
32639;SDS011;19049;52.524;11.468;2022-11-11T14:21:47;1.23;;;0.60;;
32639;SDS011;19049;52.524;11.468;2022-11-11T14:27:47;1.73;;;0.80;;
32639;SDS011;19049;52.524;11.468;2022-11-11T14:29:55;2.40;;;0.87;;
32639;SDS011;19049;52.524;11.468;2022-11-11T14:38:15;1.73;;;0.80;;
32639;SDS011;19049;52.524;11.468;2022-11-11T14:55:17;1.23;;;0.70;;
32639;SDS011;19049;52.524;11.468;2022-11-11T15:00:47;0.93;;;0.60;;
32639;SDS011;19049;52.524;11.468;2022-11-11T15:08:46;1.30;;;0.60;;
32639;SDS011;19049;52.524;11.468;2022-11-11T15:11:29;0.67;;;0.60;;
32639;SDS011;19049;52.524;11.468;2022-11-11T15:16:53;0.70;;;0.57;;
32639;SDS011;19049;52.524;11.468;2022-11-11T15:24:57;1.97;;;0.87;;
32639;SDS011;19049;52.524;11.468;2022-11-11T15:30:14;1.63;;;0.90;;
32639;SDS011;19049;52.524;11.468;2022-11-11T15:32:48;1.77;;;0.80;;
32639;SDS011;19049;52.524;11.468;2022-11-11T15:38:14;1.57;;;0.90;;
32639;SDS011;19049;52.524;11.468;2022-11-11T15:40:49;1.90;;;1.30;;
32639;SDS011;19049;52.524;11.468;2022-11-11T15:43:23;1.37;;;0.60;;
32639;SDS011;19049;52.524;11.468;2022-11-11T15:45:52;1.20;;;1.00;;
32639;SDS011;19049;52.524;11.468;2022-11-11T15:48:41;2.10;;;0.87;;
32639;SDS011;19049;52.524;11.468;2022-11-11T15:51:14;1.10;;;0.60;;
32639;SDS011;19049;52.524;11.468;2022-11-11T15:53:40;0.97;;;0.87;;
32639;SDS011;19049;52.524;11.468;2022-11-11T15:56:07;1.20;;;0.70;;
32639;SDS011;19049;52.524;11.468;2022-11-11T15:58:34;2.03;;;0.63;;
32639;SDS011;19049;52.524;11.468;2022-11-11T16:01:01;1.90;;;0.73;;
32639;SDS011;19049;52.524;11.468;2022-11-11T16:03:32;0.60;;;0.60;;
32639;SDS011;19049;52.524;11.468;2022-11-11T16:06:05;0.87;;;0.60;;
32639;SDS011;19049;52.524;11.468;2022-11-11T16:08:33;0.70;;;0.60;;
32639;SDS011;19049;52.524;11.468;2022-11-11T16:10:59;1.47;;;0.70;;
32639;SDS011;19049;52.524;11.468;2022-11-11T16:14:01;0.80;;;0.57;;
32639;SDS011;19049;52.524;11.468;2022-11-11T16:16:28;0.80;;;0.73;;
32639;SDS011;19049;52.524;11.468;2022-11-11T16:21:28;0.90;;;0.70;;
32639;SDS011;19049;52.524;11.468;2022-11-11T16:24:26;0.60;;;0.50;;
32639;SDS011;19049;52.524;11.468;2022-11-11T16:26:55;0.93;;;0.60;;
32639;SDS011;19049;52.524;11.468;2022-11-11T16:29:22;1.90;;;0.90;;
32639;SDS011;19049;52.524;11.468;2022-11-11T16:31:55;1.20;;;0.73;;
32639;SDS011;19049;52.524;11.468;2022-11-11T16:39:26;1.20;;;0.90;;
32639;SDS011;19049;52.524;11.468;2022-11-11T16:41:52;3.67;;;0.90;;
32639;SDS011;19049;52.524;11.468;2022-11-11T16:44:37;0.87;;;0.73;;
32639;SDS011;19049;52.524;11.468;2022-11-11T16:47:06;0.80;;;0.80;;
32639;SDS011;19049;52.524;11.468;2022-11-11T16:52:42;0.83;;;0.60;;
32639;SDS011;19049;52.524;11.468;2022-11-11T16:55:27;0.90;;;0.60;;
32639;SDS011;19049;52.524;11.468;2022-11-11T16:57:59;2.10;;;0.67;;
32639;SDS011;19049;52.524;11.468;2022-11-11T17:00:37;0.60;;;0.50;;
32639;SDS011;19049;52.524;11.468;2022-11-11T17:03:14;1.77;;;0.80;;
32639;SDS011;19049;52.524;11.468;2022-11-11T17:08:44;1.37;;;0.87;;
32639;SDS011;19049;52.524;11.468;2022-11-11T17:11:40;2.93;;;0.90;;
32639;SDS011;19049;52.524;11.468;2022-11-11T17:14:05;1.17;;;0.80;;
32639;SDS011;19049;52.524;11.468;2022-11-11T17:16:31;2.00;;;1.23;;
32639;SDS011;19049;52.524;11.468;2022-11-11T17:19:00;2.33;;;1.83;;
32639;SDS011;19049;52.524;11.468;2022-11-11T17:21:29;3.00;;;2.03;;
32639;SDS011;19049;52.524;11.468;2022-11-11T17:23:54;2.50;;;2.00;;
32639;SDS011;19049;52.524;11.468;2022-11-11T17:26:20;1.97;;;1.47;;
32639;SDS011;19049;52.524;11.468;2022-11-11T17:28:46;1.93;;;1.57;;
32639;SDS011;19049;52.524;11.468;2022-11-11T17:31:12;1.60;;;1.40;;
32639;SDS011;19049;52.524;11.468;2022-11-11T17:33:37;2.47;;;1.90;;
32639;SDS011;19049;52.524;11.468;2022-11-11T17:36:03;5.17;;;2.67;;
32639;SDS011;19049;52.524;11.468;2022-11-11T17:38:34;3.87;;;2.40;;
32639;SDS011;19049;52.524;11.468;2022-11-11T17:41:01;4.77;;;2.67;;
32639;SDS011;19049;52.524;11.468;2022-11-11T17:43:27;3.30;;;2.13;;
32639;SDS011;19049;52.524;11.468;2022-11-11T17:45:53;4.27;;;2.33;;
32639;SDS011;19049;52.524;11.468;2022-11-11T17:48:20;3.77;;;2.10;;
32639;SDS011;19049;52.524;11.468;2022-11-11T17:59:04;2.67;;;2.23;;
32639;SDS011;19049;52.524;11.468;2022-11-11T18:01:34;2.83;;;2.43;;
32639;SDS011;19049;52.524;11.468;2022-11-11T18:04:03;5.10;;;3.30;;
32639;SDS011;19049;52.524;11.468;2022-11-11T18:06:49;3.83;;;2.70;;